Time;durP1;ratioP1;P1;durP2;ratioP2;P2;SDS_P1;SDS_P2;PMS_P1;PMS_P2;Temp;Humidity;BMP_temperature;BMP_pressure;BME280_temperature;BME280_humidity;BME280_pressure;Samples;Min_cycle;Max_cycle;Signal;HPM_P1;HPM_P2
2021/10/17 00:01:14;;;;;;;12.43;6.20;;;14.10;99.90;;;;;;5012795;28;20083;-76
2021/10/17 00:03:39;;;;;;;9.43;5.57;;;14.00;99.90;;;;;;5011506;28;20478;-76
2021/10/17 00:06:05;;;;;;;7.28;6.22;;;14.00;99.90;;;;;;4999834;28;20077;-76
2021/10/17 00:08:32;;;;;;;11.05;5.60;;;14.00;99.90;;;;;;5011037;28;20398;-76
2021/10/17 00:10:58;;;;;;;8.40;5.97;;;13.90;99.90;;;;;;5011791;28;20417;-76
2021/10/17 00:13:23;;;;;;;9.85;6.18;;;14.00;99.90;;;;;;5012042;28;20129;-76
2021/10/17 00:15:49;;;;;;;9.20;6.38;;;13.90;99.90;;;;;;5012343;28;20026;-76
2021/10/17 00:18:15;;;;;;;8.35;5.45;;;13.80;99.90;;;;;;5012249;28;20437;-76
2021/10/17 00:20:41;;;;;;;9.90;5.88;;;13.70;99.90;;;;;;5027038;28;20041;-76
2021/10/17 00:23:07;;;;;;;8.00;6.03;;;13.70;99.90;;;;;;5012190;28;20437;-76
2021/10/17 00:25:33;;;;;;;9.23;5.88;;;13.70;99.90;;;;;;5012523;28;20034;-76
2021/10/17 00:27:58;;;;;;;11.43;6.03;;;13.60;99.90;;;;;;5012368;28;20064;-75
2021/10/17 00:30:24;;;;;;;9.50;5.57;;;13.60;99.90;;;;;;5012321;28;20088;-75
2021/10/17 00:32:50;;;;;;;11.48;6.18;;;13.50;99.90;;;;;;5007523;28;20041;-76
2021/10/17 00:35:16;;;;;;;7.55;5.80;;;13.40;99.90;;;;;;5002669;28;20113;-77
2021/10/17 00:37:42;;;;;;;11.00;6.85;;;13.40;99.90;;;;;;5013121;28;20441;-77
2021/10/17 00:40:11;;;;;;;10.93;6.65;;;13.40;99.90;;;;;;5013944;28;20049;-76
2021/10/17 00:42:38;;;;;;;12.00;7.05;;;13.40;99.90;;;;;;5015347;28;20049;-76
2021/10/17 00:45:07;;;;;;;9.73;6.60;;;13.40;99.90;;;;;;5015642;28;20113;-77
2021/10/17 00:47:33;;;;;;;9.13;5.80;;;13.40;99.90;;;;;;5015538;28;20044;-76
2021/10/17 00:49:58;;;;;;;10.15;6.00;;;13.50;99.90;;;;;;5015124;28;20105;-75
2021/10/17 00:52:24;;;;;;;7.93;5.70;;;13.60;99.90;;;;;;5015293;28;20442;-75
2021/10/17 00:54:50;;;;;;;8.32;5.50;;;13.60;99.90;;;;;;5015356;28;20030;-76
2021/10/17 00:57:17;;;;;;;8.98;5.32;;;13.60;99.90;;;;;;5014181;28;20022;-76
2021/10/17 00:59:46;;;;;;;8.20;5.47;;;13.60;99.90;;;;;;5015249;28;20049;-76
2021/10/17 01:02:12;;;;;;;9.30;6.28;;;13.50;99.90;;;;;;5013583;28;20038;-75
2021/10/17 01:04:39;;;;;;;12.45;5.85;;;13.50;99.90;;;;;;5014960;28;20030;-76
2021/10/17 01:07:06;;;;;;;11.27;6.00;;;13.50;99.90;;;;;;5014978;28;20052;-75
2021/10/17 01:09:34;;;;;;;8.77;5.70;;;13.40;99.90;;;;;;5030598;28;20455;-75
2021/10/17 01:11:59;;;;;;;11.30;5.45;;;13.40;99.90;;;;;;5014781;28;20037;-77
2021/10/17 01:14:25;;;;;;;6.90;5.75;;;13.40;99.90;;;;;;5014699;28;20042;-75
2021/10/17 01:16:52;;;;;;;10.20;5.78;;;13.40;99.90;;;;;;5014879;28;20486;-75
2021/10/17 01:19:19;;;;;;;7.13;5.68;;;13.40;99.90;;;;;;5014815;28;20064;-77
2021/10/17 01:21:46;;;;;;;8.63;5.80;;;13.30;99.90;;;;;;5001104;28;20022;-76
2021/10/17 01:24:13;;;;;;;8.90;6.85;;;13.30;99.90;;;;;;5013886;28;20064;-75
2021/10/17 01:26:40;;;;;;;9.55;5.65;;;13.30;99.90;;;;;;5013815;28;20457;-74
2021/10/17 01:29:06;;;;;;;12.18;6.88;;;13.20;99.90;;;;;;5014629;28;20030;-75
2021/10/17 01:31:38;;;;;;;8.52;5.68;;;13.20;99.90;;;;;;5014848;28;20085;-76
2021/10/17 01:34:06;;;;;;;8.57;5.60;;;13.20;99.90;;;;;;5014232;28;20046;-76
2021/10/17 01:36:37;;;;;;;8.93;6.30;;;13.20;99.90;;;;;;5014306;28;20410;-76
2021/10/17 01:39:05;;;;;;;6.13;4.88;;;13.10;99.90;;;;;;5014860;28;20030;-74
2021/10/17 01:41:31;;;;;;;10.02;6.00;;;13.10;99.90;;;;;;5014396;28;20402;-76
2021/10/17 01:44:04;;;;;;;8.93;5.90;;;13.10;99.90;;;;;;5014302;28;20042;-73
2021/10/17 01:46:30;;;;;;;8.93;5.88;;;13.10;99.90;;;;;;5013496;28;20486;-76
2021/10/17 01:48:56;;;;;;;7.63;5.55;;;13.00;99.90;;;;;;5013275;28;20049;-75
2021/10/17 01:51:22;;;;;;;9.32;5.75;;;13.00;99.90;;;;;;5013636;28;20037;-75
2021/10/17 01:53:47;;;;;;;7.72;5.45;;;13.00;99.90;;;;;;5012376;28;20046;-76
2021/10/17 01:56:13;;;;;;;6.45;5.50;;;12.90;99.90;;;;;;5014303;28;20022;-75
2021/10/17 01:58:39;;;;;;;7.15;5.68;;;12.90;99.90;;;;;;5014155;28;20026;-76
2021/10/17 02:01:04;;;;;;;9.40;6.22;;;12.90;99.90;;;;;;5013872;28;20482;-76
2021/10/17 02:03:30;;;;;;;8.32;6.15;;;12.90;99.90;;;;;;5014004;28;20505;-76
2021/10/17 02:05:56;;;;;;;10.70;6.22;;;12.90;99.90;;;;;;5014108;28;20100;-75
2021/10/17 02:08:22;;;;;;;13.23;6.30;;;12.80;99.90;;;;;;5013420;28;20402;-76
2021/10/17 02:10:47;;;;;;;10.07;6.55;;;12.80;99.90;;;;;;5011995;28;20049;-75
2021/10/17 02:13:14;;;;;;;8.45;5.63;;;12.80;99.90;;;;;;5013840;28;20500;-77
2021/10/17 02:15:40;;;;;;;10.02;6.45;;;12.80;99.90;;;;;;5013679;28;20033;-75
2021/10/17 02:18:06;;;;;;;9.30;6.40;;;12.80;99.90;;;;;;5013586;28;20428;-76
2021/10/17 02:20:34;;;;;;;8.93;6.43;;;12.80;99.90;;;;;;5013879;28;20026;-76
2021/10/17 02:23:00;;;;;;;10.05;5.82;;;12.80;99.90;;;;;;5013506;28;20374;-77
2021/10/17 02:25:27;;;;;;;7.35;6.00;;;12.80;99.90;;;;;;5013639;28;20088;-76
2021/10/17 02:27:52;;;;;;;8.60;6.30;;;12.80;99.90;;;;;;5013497;28;20026;-75
2021/10/17 02:30:18;;;;;;;7.95;5.82;;;12.80;99.90;;;;;;5012472;28;20478;-76
2021/10/17 02:32:44;;;;;;;7.65;5.88;;;12.80;99.90;;;;;;5013671;28;20037;-76
2021/10/17 02:35:09;;;;;;;8.77;6.25;;;12.80;99.90;;;;;;5013652;28;20030;-76
2021/10/17 02:37:35;;;;;;;9.82;6.53;;;12.70;99.90;;;;;;5013374;28;20501;-76
2021/10/17 02:40:01;;;;;;;8.43;6.22;;;12.70;99.90;;;;;;5013044;28;20038;-76
2021/10/17 02:42:26;;;;;;;10.57;6.90;;;12.70;99.90;;;;;;5013403;28;20065;-76
2021/10/17 02:44:52;;;;;;;9.50;6.30;;;12.60;99.90;;;;;;5013364;28;20029;-75
2021/10/17 02:47:18;;;;;;;12.52;6.55;;;12.60;99.90;;;;;;5013824;28;20030;-75
2021/10/17 02:49:44;;;;;;;10.52;6.15;;;12.60;99.90;;;;;;5013123;28;20038;-76
2021/10/17 02:52:09;;;;;;;9.15;6.82;;;12.50;99.90;;;;;;5013327;28;20501;-76
2021/10/17 02:54:35;;;;;;;7.60;6.30;;;12.50;99.90;;;;;;5013689;28;20125;-77
2021/10/17 02:57:01;;;;;;;9.20;6.45;;;12.40;99.90;;;;;;5028439;28;20060;-76
2021/10/17 02:59:26;;;;;;;9.27;6.35;;;12.40;99.90;;;;;;5013400;28;20026;-76
2021/10/17 03:01:52;;;;;;;9.40;5.65;;;12.30;99.90;;;;;;5013026;28;20022;-76
2021/10/17 03:04:18;;;;;;;8.90;6.38;;;12.40;99.90;;;;;;5013133;28;20037;-76
2021/10/17 03:06:44;;;;;;;7.57;5.95;;;12.40;99.90;;;;;;5013425;28;20027;-77
2021/10/17 03:09:09;;;;;;;7.88;6.10;;;12.40;99.90;;;;;;5012389;28;20022;-75
2021/10/17 03:11:35;;;;;;;7.75;5.95;;;12.40;99.90;;;;;;5012671;28;20112;-76
2021/10/17 03:14:02;;;;;;;8.02;6.03;;;12.30;99.90;;;;;;5012887;28;20045;-76
2021/10/17 03:16:28;;;;;;;13.00;6.53;;;12.20;99.90;;;;;;5012301;28;20037;-76
2021/10/17 03:18:54;;;;;;;8.50;5.88;;;12.20;99.90;;;;;;5012870;28;20113;-76
2021/10/17 03:21:20;;;;;;;9.13;6.15;;;12.20;99.90;;;;;;5012701;28;20106;-76
2021/10/17 03:23:45;;;;;;;12.70;6.38;;;12.30;99.90;;;;;;5012949;28;20598;-76
2021/10/17 03:26:11;;;;;;;8.00;5.72;;;12.30;99.90;;;;;;5012757;28;20445;-76
2021/10/17 03:28:37;;;;;;;9.88;6.15;;;12.30;99.90;;;;;;5012867;28;20105;-76
2021/10/17 03:31:06;;;;;;;10.77;6.70;;;12.30;99.90;;;;;;5012466;28;20065;-75
2021/10/17 03:33:32;;;;;;;8.45;6.60;;;12.20;99.90;;;;;;5012377;28;20030;-76
2021/10/17 03:35:58;;;;;;;10.85;6.38;;;12.20;99.90;;;;;;5012009;28;20368;-75
2021/10/17 03:38:23;;;;;;;7.78;6.13;;;12.20;99.90;;;;;;5012225;28;20088;-76
2021/10/17 03:40:49;;;;;;;13.45;7.75;;;12.20;99.90;;;;;;5012179;28;20546;-76
2021/10/17 03:43:15;;;;;;;8.40;6.78;;;12.20;99.90;;;;;;5012204;28;20034;-76
2021/10/17 03:45:40;;;;;;;11.02;6.60;;;12.20;99.90;;;;;;5012018;28;20030;-76
2021/10/17 03:48:07;;;;;;;8.98;6.18;;;12.20;99.90;;;;;;5012036;28;20038;-76
2021/10/17 03:50:33;;;;;;;8.80;5.30;;;12.20;99.90;;;;;;5012148;28;20486;-77
2021/10/17 03:53:00;;;;;;;8.63;5.50;;;12.20;99.90;;;;;;5010985;28;20064;-76
2021/10/17 03:55:26;;;;;;;8.20;5.93;;;12.20;99.90;;;;;;5012171;28;20038;-76
2021/10/17 03:57:51;;;;;;;7.93;6.07;;;12.30;99.90;;;;;;5012404;28;20093;-76
2021/10/17 04:00:17;;;;;;;8.95;6.03;;;12.30;99.90;;;;;;5012086;28;20482;-76
2021/10/17 04:02:42;;;;;;;8.88;6.57;;;12.30;99.90;;;;;;5012410;28;20482;-76
2021/10/17 04:05:08;;;;;;;11.52;6.60;;;12.30;99.90;;;;;;5010415;28;20030;-76
2021/10/17 04:07:37;;;;;;;10.27;6.88;;;12.40;99.90;;;;;;5011896;28;20037;-76
2021/10/17 04:10:04;;;;;;;7.18;6.13;;;12.40;99.90;;;;;;5003427;28;20022;-76
2021/10/17 04:12:31;;;;;;;9.05;6.40;;;12.40;99.90;;;;;;5011403;28;20036;-75
2021/10/17 04:14:56;;;;;;;15.43;6.45;;;12.50;99.90;;;;;;5016250;28;20038;-76
2021/10/17 04:17:23;;;;;;;7.57;6.03;;;12.50;99.90;;;;;;5016176;28;20084;-76
2021/10/17 04:19:49;;;;;;;7.68;6.07;;;12.50;99.90;;;;;;5014629;28;20120;-76
2021/10/17 04:22:15;;;;;;;8.18;6.15;;;12.50;99.90;;;;;;5015880;28;20137;-76
2021/10/17 04:24:41;;;;;;;7.68;5.88;;;12.50;99.90;;;;;;5031266;28;20065;-77
2021/10/17 04:27:08;;;;;;;9.95;6.40;;;12.50;99.90;;;;;;5016080;28;20522;-76
2021/10/17 04:29:35;;;;;;;8.30;6.00;;;12.50;99.90;;;;;;5016021;28;20044;-76
2021/10/17 04:32:01;;;;;;;7.78;5.97;;;12.50;99.90;;;;;;5015875;28;20109;-76
2021/10/17 04:34:27;;;;;;;29.77;8.35;;;12.50;99.90;;;;;;5014286;28;20441;-76
2021/10/17 04:36:53;;;;;;;10.02;6.90;;;12.50;99.90;;;;;;5015288;28;20084;-76
2021/10/17 04:39:19;;;;;;;9.43;5.82;;;12.50;99.90;;;;;;5016131;28;20033;-76
2021/10/17 04:41:45;;;;;;;8.57;6.88;;;12.50;99.90;;;;;;5015138;28;20533;-77
2021/10/17 04:44:11;;;;;;;11.75;6.78;;;12.40;99.90;;;;;;5015591;28;20054;-75
2021/10/17 04:46:36;;;;;;;9.45;6.85;;;12.40;99.90;;;;;;5015383;28;20048;-76
2021/10/17 04:49:02;;;;;;;11.10;6.68;;;12.40;99.90;;;;;;5015547;28;20523;-75
2021/10/17 04:51:28;;;;;;;10.52;7.13;;;12.30;99.90;;;;;;5015124;28;20056;-75
2021/10/17 04:53:53;;;;;;;11.70;7.38;;;12.30;99.90;;;;;;5015202;28;20045;-76
2021/10/17 04:56:19;;;;;;;8.88;7.07;;;12.30;99.90;;;;;;5015168;28;20505;-75
2021/10/17 04:58:45;;;;;;;7.57;6.40;;;12.40;99.90;;;;;;5015498;28;20042;-75
2021/10/17 05:01:11;;;;;;;11.02;7.03;;;12.30;99.90;;;;;;5015497;28;20113;-76
2021/10/17 05:03:37;;;;;;;17.10;11.85;;;12.30;99.90;;;;;;5015312;28;20034;-75
2021/10/17 05:06:03;;;;;;;12.40;8.40;;;12.30;99.90;;;;;;5015264;28;20021;-76
2021/10/17 05:08:29;;;;;;;12.60;7.22;;;12.30;99.90;;;;;;5015647;28;20101;-74
2021/10/17 05:10:55;;;;;;;14.32;9.50;;;12.20;99.90;;;;;;5014805;28;20401;-76
2021/10/17 05:13:21;;;;;;;17.70;10.80;;;12.20;99.90;;;;;;5015198;28;20096;-76
2021/10/17 05:15:46;;;;;;;22.83;13.70;;;12.20;99.90;;;;;;5014623;28;20088;-76
2021/10/17 05:18:12;;;;;;;16.50;11.60;;;12.30;99.90;;;;;;5013965;28;20053;-76
2021/10/17 05:20:38;;;;;;;17.55;9.98;;;12.20;99.90;;;;;;5014427;28;20030;-76
2021/10/17 05:23:07;;;;;;;9.85;7.28;;;12.20;99.90;;;;;;5014309;28;20104;-76
2021/10/17 05:25:36;;;;;;;12.43;7.55;;;12.20;99.90;;;;;;5013935;28;20108;-76
2021/10/17 05:28:01;;;;;;;12.45;8.57;;;12.20;99.90;;;;;;5013643;28;20026;-76
2021/10/17 05:30:27;;;;;;;13.32;8.63;;;12.30;99.90;;;;;;5009814;28;20439;-76
2021/10/17 05:32:53;;;;;;;13.18;7.85;;;12.30;99.90;;;;;;5011261;28;20088;-76
2021/10/17 05:35:19;;;;;;;11.48;7.18;;;12.30;99.90;;;;;;5014424;28;20038;-76
2021/10/17 05:37:44;;;;;;;11.70;7.50;;;12.30;99.90;;;;;;5014652;28;20041;-76
2021/10/17 05:40:10;;;;;;;10.73;6.95;;;12.40;99.90;;;;;;5014451;28;20036;-73
2021/10/17 05:42:37;;;;;;;10.95;7.10;;;12.40;99.90;;;;;;5014476;28;20037;-73
2021/10/17 05:45:04;;;;;;;9.52;7.35;;;12.60;99.90;;;;;;5014069;28;20034;-76
2021/10/17 05:47:29;;;;;;;12.00;7.10;;;12.70;99.90;;;;;;5012809;28;20080;-75
2021/10/17 05:49:55;;;;;;;11.63;7.30;;;12.70;99.90;;;;;;5013990;28;20113;-75
2021/10/17 05:52:20;;;;;;;6.75;5.95;;;12.90;99.90;;;;;;5013379;28;20084;-75
2021/10/17 05:54:46;;;;;;;11.02;7.53;;;13.50;99.90;;;;;;5014151;28;20493;-75
2021/10/17 05:57:12;;;;;;;9.57;6.97;;;14.00;99.90;;;;;;5014383;28;20030;-76
2021/10/17 05:59:37;;;;;;;11.13;6.18;;;14.50;99.90;;;;;;5012965;28;20124;-75
2021/10/17 06:02:03;;;;;;;9.52;6.60;;;14.90;99.90;;;;;;5014262;28;20029;-76
2021/10/17 06:04:28;;;;;;;8.73;5.70;;;15.40;99.90;;;;;;5014156;28;20418;-76
2021/10/17 06:06:54;;;;;;;8.48;5.80;;;15.80;99.90;;;;;;5014232;28;20481;-73
2021/10/17 06:09:20;;;;;;;7.70;5.72;;;16.40;99.60;;;;;;5013663;28;20049;-74
2021/10/17 06:11:46;;;;;;;11.07;5.65;;;17.00;98.70;;;;;;5014315;28;20030;-76
2021/10/17 06:14:11;;;;;;;8.35;5.63;;;17.60;97.70;;;;;;5013619;28;20068;-76
2021/10/17 06:16:37;;;;;;;8.85;5.82;;;18.00;97.20;;;;;;5013686;28;20469;-76
2021/10/17 06:19:03;;;;;;;7.15;5.50;;;18.30;96.50;;;;;;5013592;28;20030;-76
2021/10/17 06:21:28;;;;;;;7.32;5.53;;;18.40;96.00;;;;;;5013954;28;20112;-77
2021/10/17 06:23:54;;;;;;;8.30;5.68;;;18.50;96.00;;;;;;5013936;28;20029;-75
2021/10/17 06:26:20;;;;;;;8.38;5.50;;;18.80;95.60;;;;;;5012255;28;20118;-76
2021/10/17 06:28:46;;;;;;;6.25;4.85;;;19.10;95.60;;;;;;5013114;28;20033;-76
2021/10/17 06:31:11;;;;;;;9.25;5.40;;;19.40;95.20;;;;;;5013618;28;20030;-77
2021/10/17 06:33:37;;;;;;;6.85;5.28;;;19.50;94.30;;;;;;5013498;28;20470;-77
2021/10/17 06:36:03;;;;;;;7.15;4.88;;;19.50;94.20;;;;;;5013211;28;20417;-74
2021/10/17 06:38:28;;;;;;;6.80;4.97;;;19.60;94.20;;;;;;5013102;28;20050;-77
2021/10/17 06:40:54;;;;;;;6.50;5.03;;;20.10;93.70;;;;;;5012999;28;20084;-76
2021/10/17 06:43:20;;;;;;;9.73;4.90;;;20.20;93.40;;;;;;5012803;28;20033;-77
2021/10/17 06:45:46;;;;;;;8.13;5.32;;;20.20;93.30;;;;;;5007058;28;20100;-77
2021/10/17 06:48:11;;;;;;;5.82;4.85;;;20.50;93.00;;;;;;5010939;28;20041;-77
2021/10/17 06:50:37;;;;;;;5.93;4.68;;;20.90;92.70;;;;;;5007701;28;20462;-74
2021/10/17 06:53:03;;;;;;;5.88;4.97;;;21.30;91.90;;;;;;5008110;28;20045;-76
2021/10/17 06:55:28;;;;;;;5.93;4.72;;;20.70;92.20;;;;;;5013368;28;20038;-77
2021/10/17 06:57:54;;;;;;;7.53;4.70;;;20.60;92.50;;;;;;5007532;28;20038;-77
2021/10/17 07:00:20;;;;;;;7.30;5.32;;;21.10;92.20;;;;;;5007703;28;20030;-77
2021/10/17 07:02:45;;;;;;;7.13;5.07;;;21.40;91.50;;;;;;5013004;28;20037;-75
2021/10/17 07:05:11;;;;;;;4.70;4.05;;;21.60;91.60;;;;;;5012773;28;20475;-76
2021/10/17 07:07:37;;;;;;;6.97;4.80;;;21.90;91.10;;;;;;5012661;28;20386;-77
2021/10/17 07:10:03;;;;;;;6.00;4.40;;;22.00;91.10;;;;;;5013104;28;20402;-76
2021/10/17 07:12:29;;;;;;;6.18;4.75;;;21.90;90.90;;;;;;5013009;28;20409;-77
2021/10/17 07:14:55;;;;;;;5.57;4.20;;;22.10;90.90;;;;;;5012956;28;20544;-76
2021/10/17 07:17:21;;;;;;;5.63;4.40;;;22.40;90.40;;;;;;5012681;28;20030;-77
2021/10/17 07:19:47;;;;;;;6.28;4.75;;;22.60;90.10;;;;;;5012258;28;20096;-76
2021/10/17 07:22:13;;;;;;;6.97;4.25;;;22.80;89.80;;;;;;5012876;28;20034;-76
2021/10/17 07:24:39;;;;;;;7.65;4.13;;;23.00;89.30;;;;;;5012694;28;20125;-77
2021/10/17 07:27:05;;;;;;;6.40;3.40;;;23.30;88.40;;;;;;5027910;28;20034;-77
2021/10/17 07:29:30;;;;;;;6.60;4.13;;;23.20;87.90;;;;;;5012543;28;20494;-77
2021/10/17 07:31:56;;;;;;;5.47;4.22;;;23.20;88.00;;;;;;5012315;28;20033;-77
2021/10/17 07:34:22;;;;;;;5.75;3.65;;;22.80;88.70;;;;;;5012368;28;20103;-76
2021/10/17 07:36:48;;;;;;;5.43;3.65;;;22.80;89.20;;;;;;5012737;28;20026;-77
2021/10/17 07:39:14;;;;;;;7.55;3.47;;;22.50;89.00;;;;;;5009068;28;20057;-75
2021/10/17 07:41:45;;;;;;;11.52;4.38;;;22.30;89.20;;;;;;4995066;28;20034;-75
2021/10/17 07:44:11;;;;;;;5.13;3.67;;;22.20;90.00;;;;;;5011692;28;20041;-77
2021/10/17 07:46:37;;;;;;;4.45;3.38;;;21.90;90.40;;;;;;5012004;28;20026;-77
2021/10/17 07:49:03;;;;;;;4.55;3.72;;;21.70;90.50;;;;;;5011662;28;20486;-77
2021/10/17 07:51:29;;;;;;;6.90;3.85;;;21.60;90.40;;;;;;5005826;28;20044;-76
2021/10/17 07:53:55;;;;;;;7.07;4.07;;;21.70;90.40;;;;;;5011003;28;20160;-77
2021/10/17 07:56:21;;;;;;;4.28;3.28;;;21.70;90.80;;;;;;5012577;28;20034;-77
2021/10/17 07:58:46;;;;;;;4.85;3.78;;;21.80;90.60;;;;;;5011869;28;20124;-76
2021/10/17 08:01:12;;;;;;;3.53;3.22;;;21.90;90.50;;;;;;5004649;28;20109;-77
2021/10/17 08:03:38;;;;;;;4.68;3.25;;;21.90;90.50;;;;;;4993177;28;20030;-77
2021/10/17 08:06:04;;;;;;;4.72;3.70;;;22.20;90.30;;;;;;4998899;28;20065;-77
2021/10/17 08:08:30;;;;;;;4.20;3.40;;;22.10;90.40;;;;;;5012641;28;20061;-77
2021/10/17 08:10:56;;;;;;;4.40;3.65;;;22.20;90.40;;;;;;5012295;28;20061;-77
2021/10/17 08:13:21;;;;;;;5.40;3.70;;;22.20;90.00;;;;;;5012118;28;20042;-77
2021/10/17 08:15:47;;;;;;;3.97;3.58;;;22.20;90.20;;;;;;5012426;28;20026;-77
2021/10/17 08:18:13;;;;;;;11.05;3.35;;;22.50;89.20;;;;;;5012599;28;20029;-78
2021/10/17 08:20:39;;;;;;;10.30;3.58;;;22.70;89.40;;;;;;5007995;28;20061;-77
2021/10/17 08:23:04;;;;;;;5.15;3.42;;;23.00;89.00;;;;;;5012336;28;20066;-76
2021/10/17 08:25:31;;;;;;;4.55;3.30;;;23.30;87.70;;;;;;5005619;28;20549;-77
2021/10/17 08:27:58;;;;;;;5.38;3.85;;;23.60;86.90;;;;;;5009363;28;20379;-77
2021/10/17 08:30:24;;;;;;;5.20;3.03;;;23.90;85.30;;;;;;5012506;28;20541;-77
2021/10/17 08:32:49;;;;;;;9.35;3.58;;;24.00;84.40;;;;;;5010943;28;20045;-77
2021/10/17 08:35:15;;;;;;;3.47;3.17;;;24.40;84.00;;;;;;5012357;28;20067;-77
2021/10/17 08:37:41;;;;;;;3.13;2.70;;;25.90;81.00;;;;;;5012235;28;20080;-77
2021/10/17 08:40:08;;;;;;;3.40;3.10;;;27.40;77.60;;;;;;5008892;28;20034;-78
2021/10/17 08:42:33;;;;;;;4.22;3.33;;;28.90;74.20;;;;;;5006404;28;20061;-77
2021/10/17 08:44:59;;;;;;;3.47;3.10;;;29.60;72.40;;;;;;5011809;28;20030;-77
2021/10/17 08:47:28;;;;;;;6.57;3.80;;;30.00;71.70;;;;;;5012037;28;20042;-77
2021/10/17 08:49:57;;;;;;;3.20;2.72;;;30.40;69.80;;;;;;5012341;28;20213;-76
2021/10/17 08:52:22;;;;;;;6.43;3.30;;;30.90;68.50;;;;;;5012171;28;20061;-77
2021/10/17 08:54:49;;;;;;;3.30;2.88;;;30.70;67.60;;;;;;5012036;28;20075;-77
2021/10/17 08:57:15;;;;;;;2.72;2.42;;;30.30;68.70;;;;;;5003638;28;20030;-77
2021/10/17 08:59:48;;;;;;;6.72;2.38;;;31.10;66.80;;;;;;5014355;28;20038;-80
2021/10/17 09:02:19;;;;;;;6.28;2.70;;;32.80;65.10;;;;;;5011670;28;20063;-75
2021/10/17 09:05:01;;;;;;;5.90;3.45;;;33.30;63.40;;;;;;5010254;28;20375;-77
2021/10/17 09:07:27;;;;;;;3.40;2.55;;;34.20;62.00;;;;;;5006024;28;20402;-80
2021/10/17 09:10:16;;;;;;;3.92;2.22;;;34.80;60.50;;;;;;5008897;28;20049;-80
2021/10/17 09:12:47;;;;;;;3.80;2.30;;;35.40;59.10;;;;;;5009811;28;20034;-80
2021/10/17 09:15:28;;;;;;;3.40;2.47;;;35.80;58.70;;;;;;5011006;28;20096;-75
2021/10/17 09:18:10;;;;;;;3.05;2.20;;;35.90;57.70;;;;;;5024777;28;20031;-81
2021/10/17 09:20:48;;;;;;;3.05;2.30;;;36.10;57.70;;;;;;5002722;28;20026;-73
2021/10/17 09:23:14;;;;;;;7.72;2.35;;;37.10;56.70;;;;;;5006182;28;20033;-81
2021/10/17 09:25:40;;;;;;;3.97;2.40;;;38.00;56.00;;;;;;5010836;28;20029;-74
2021/10/17 09:28:16;;;;;;;2.85;2.25;;;38.20;54.60;;;;;;5012429;28;20041;-81
2021/10/17 09:30:55;;;;;;;2.33;2.05;;;36.90;54.80;;;;;;5007654;28;20034;-79
2021/10/17 09:33:21;;;;;;;2.92;2.03;;;36.20;55.40;;;;;;4999059;28;20051;-78
2021/10/17 09:35:47;;;;;;;2.38;2.17;;;36.50;54.80;;;;;;5005973;28;20121;-75
2021/10/17 09:38:16;;;;;;;5.63;1.95;;;37.30;55.00;;;;;;5003023;28;20057;-81
2021/10/17 09:40:44;;;;;;;2.30;1.90;;;38.70;53.30;;;;;;5012936;28;20084;-81
2021/10/17 09:43:22;;;;;;;5.55;2.40;;;39.00;52.60;;;;;;5011356;28;20030;-81
2021/10/17 09:45:49;;;;;;;2.75;2.35;;;38.40;52.20;;;;;;5014214;28;20053;-81
2021/10/17 09:48:30;;;;;;;2.90;1.80;;;36.60;53.70;;;;;;5016901;28;20371;-79
2021/10/17 09:51:01;;;;;;;3.10;2.20;;;36.00;54.40;;;;;;5015376;28;20407;-80
2021/10/17 09:53:44;;;;;;;4.38;2.67;;;35.30;55.30;;;;;;5013455;28;20136;-78
2021/10/17 09:56:54;;;;;;;4.20;2.60;;;33.60;56.60;;;;;;5013556;28;20375;-81
2021/10/17 09:59:19;;;;;;;2.92;2.03;;;31.40;59.40;;;;;;4993598;28;20039;-81
2021/10/17 10:01:45;;;;;;;3.83;2.42;;;29.30;61.50;;;;;;5013899;28;20096;-80
2021/10/17 10:04:12;;;;;;;6.38;2.50;;;27.80;64.40;;;;;;5012793;28;20052;-82
2021/10/17 10:06:38;;;;;;;5.65;2.78;;;27.20;65.50;;;;;;5013914;28;20426;-81
2021/10/17 10:09:09;;;;;;;3.38;2.58;;;26.90;66.80;;;;;;5014547;28;20026;-81
2021/10/17 10:11:37;;;;;;;2.95;2.42;;;26.20;67.50;;;;;;5013785;28;20456;-81
2021/10/17 10:14:08;;;;;;;3.65;2.38;;;25.50;68.40;;;;;;4999384;28;20069;-79
2021/10/17 10:16:35;;;;;;;5.05;3.15;;;24.90;70.10;;;;;;5013667;28;20030;-78
2021/10/17 10:19:14;;;;;;;5.85;2.53;;;24.60;70.40;;;;;;5014160;28;20029;-81
2021/10/17 10:21:39;;;;;;;4.18;2.50;;;24.30;70.40;;;;;;5014346;28;20390;-74
2021/10/17 10:24:11;;;;;;;2.45;2.25;;;24.00;70.50;;;;;;5014238;28;20044;-80
2021/10/17 10:26:39;;;;;;;7.70;2.65;;;23.90;71.40;;;;;;5014426;28;20474;-79
2021/10/17 10:29:05;;;;;;;3.85;2.42;;;23.70;71.60;;;;;;5014113;28;20113;-81
2021/10/17 10:31:40;;;;;;;2.97;2.30;;;23.50;72.10;;;;;;5013636;28;20377;-81
2021/10/17 10:34:07;;;;;;;4.55;2.90;;;23.20;73.50;;;;;;5012836;28;20113;-80
2021/10/17 10:36:43;;;;;;;3.08;2.40;;;22.90;73.50;;;;;;5013950;28;20061;-81
2021/10/17 10:39:12;;;;;;;6.03;2.30;;;22.90;72.10;;;;;;5013273;28;20121;-77
2021/10/17 10:41:44;;;;;;;5.82;2.50;;;22.90;72.40;;;;;;5013362;28;20557;-75
2021/10/17 10:44:20;;;;;;;5.45;3.22;;;22.80;73.50;;;;;;5013866;28;20076;-81
2021/10/17 10:46:46;;;;;;;7.57;2.53;;;22.60;74.50;;;;;;5013420;28;20398;-81
2021/10/17 10:49:42;;;;;;;4.35;2.97;;;22.80;74.20;;;;;;5004524;28;20113;-81
2021/10/17 10:52:27;;;;;;;4.28;2.92;;;23.20;74.30;;;;;;5000853;28;20104;-80
2021/10/17 10:54:54;;;;;;;4.45;2.78;;;23.40;73.50;;;;;;5012069;28;20049;-80
2021/10/17 10:57:22;;;;;;;3.28;2.50;;;23.60;73.30;;;;;;5013448;28;20057;-80
2021/10/17 11:00:11;;;;;;;3.80;2.47;;;23.60;72.80;;;;;;5004842;28;20033;-74
2021/10/17 11:02:39;;;;;;;3.33;2.33;;;23.50;73.20;;;;;;5000222;28;20037;-80
2021/10/17 11:05:16;;;;;;;3.08;2.58;;;23.40;73.50;;;;;;5028057;28;20117;-79
2021/10/17 11:07:44;;;;;;;3.40;3.05;;;23.20;74.20;;;;;;5012820;28;20042;-74
2021/10/17 11:10:22;;;;;;;7.65;5.68;;;23.30;74.00;;;;;;5012986;28;20080;-80
2021/10/17 11:12:59;;;;;;;6.22;3.47;;;23.40;74.20;;;;;;5010905;28;20041;-76
2021/10/17 11:15:30;;;;;;;4.07;3.13;;;23.40;74.80;;;;;;5012317;28;20187;-76
2021/10/17 11:18:03;;;;;;;2.60;2.40;;;23.00;73.50;;;;;;5012183;28;20026;-78
2021/10/17 11:20:47;;;;;;;2.38;2.17;;;22.60;74.50;;;;;;5012169;28;20038;-77
2021/10/17 11:23:33;;;;;;;2.90;2.58;;;22.50;75.50;;;;;;5027281;28;20426;-77
2021/10/17 11:26:10;;;;;;;8.10;2.78;;;22.40;75.10;;;;;;5011333;28;20029;-77
2021/10/17 11:28:38;;;;;;;5.00;2.20;;;22.30;75.50;;;;;;5021216;28;20254;-78
2021/10/17 11:31:10;;;;;;;8.25;2.63;;;22.30;75.60;;;;;;5011816;28;20038;-77
2021/10/17 11:33:38;;;;;;;2.95;2.40;;;22.50;75.50;;;;;;5010559;28;20096;-78
2021/10/17 11:36:05;;;;;;;2.97;2.67;;;22.70;75.10;;;;;;5012300;28;20034;-78
2021/10/17 11:38:31;;;;;;;9.77;2.65;;;22.60;75.00;;;;;;5011350;28;20042;-78
2021/10/17 11:41:03;;;;;;;3.58;2.50;;;22.80;75.00;;;;;;5011240;28;20033;-77
2021/10/17 11:43:41;;;;;;;2.58;2.38;;;23.00;75.10;;;;;;5011020;28;20041;-74
2021/10/17 11:46:10;;;;;;;6.55;2.38;;;23.00;75.30;;;;;;5011920;28;20053;-78
2021/10/17 11:48:37;;;;;;;4.85;2.28;;;23.10;75.30;;;;;;5010482;28;20113;-77
2021/10/17 11:51:06;;;;;;;3.17;2.50;;;22.90;75.20;;;;;;5012874;28;20026;-78
2021/10/17 11:53:32;;;;;;;7.13;2.92;;;22.80;76.20;;;;;;5012702;28;20068;-78
2021/10/17 11:55:58;;;;;;;3.42;2.60;;;22.80;77.00;;;;;;5012728;28;20030;-79
2021/10/17 11:58:26;;;;;;;14.00;2.80;;;22.80;78.80;;;;;;5011935;28;20072;-79
2021/10/17 12:01:08;;;;;;;6.32;3.35;;;22.70;79.80;;;;;;5012167;28;20474;-75
2021/10/17 12:03:34;;;;;;;5.13;2.92;;;22.70;81.10;;;;;;5012028;28;20429;-78
2021/10/17 12:06:03;;;;;;;4.05;3.30;;;22.80;81.70;;;;;;5011371;28;20113;-78
2021/10/17 12:08:32;;;;;;;4.13;2.65;;;22.70;81.10;;;;;;5004808;28;20048;-78
2021/10/17 12:11:10;;;;;;;6.10;2.75;;;22.70;80.60;;;;;;5012604;28;20030;-74
2021/10/17 12:13:49;;;;;;;4.80;2.97;;;22.70;81.10;;;;;;5027835;28;20056;-79
2021/10/17 12:16:19;;;;;;;8.57;2.90;;;22.70;82.20;;;;;;5012494;28;20031;-79
2021/10/17 12:18:52;;;;;;;6.40;2.90;;;22.60;82.30;;;;;;5012531;28;20034;-73
2021/10/17 12:21:24;;;;;;;3.92;2.65;;;22.40;83.10;;;;;;5012410;28;20057;-80
2021/10/17 12:23:51;;;;;;;3.38;3.00;;;22.30;82.90;;;;;;5011335;28;20152;-79
2021/10/17 12:26:20;;;;;;;3.50;2.75;;;22.30;83.30;;;;;;5012439;28;20022;-80
2021/10/17 12:29:07;;;;;;;3.92;3.08;;;22.30;81.40;;;;;;5012343;28;20030;-79
2021/10/17 12:31:35;;;;;;;4.20;3.08;;;22.30;82.10;;;;;;5011383;28;20034;-80
2021/10/17 12:34:04;;;;;;;3.08;2.70;;;22.30;81.60;;;;;;5012968;28;20101;-79
2021/10/17 12:36:29;;;;;;;4.75;3.28;;;22.40;82.00;;;;;;5030494;28;20371;-77
2021/10/17 12:39:05;;;;;;;3.45;3.15;;;22.30;82.10;;;;;;5015170;28;20037;-78
2021/10/17 12:41:31;;;;;;;4.78;2.83;;;22.40;82.20;;;;;;5014907;28;20445;-78
2021/10/17 12:44:02;;;;;;;8.43;3.15;;;22.40;82.40;;;;;;5015075;28;20030;-77
2021/10/17 12:46:29;;;;;;;3.53;3.13;;;22.40;82.70;;;;;;5015162;28;20025;-74
2021/10/17 12:48:56;;;;;;;10.02;3.20;;;22.40;84.70;;;;;;5009097;28;20034;-78